Terminal Aerodrome Forecast
Issued by NWS Los Angeles, CA

Home | Current Version | Previous Version | Text Only | Print | Product List | Glossary On
Versions: 1 2 3 4 5 6 7 8 9 10 11 12 13
000
FTUS46 KLOX 290300 AAA
TAFSMX
TAF AMD
KSMX 290301Z 2903/2924 31008KT P6SM BKN002
     FM290600 VRB03KT 1/4SM FG VV002
     FM290900 VRB03KT 3SM BR BKN004
     FM291600 VRB03KT P6SM SCT200
     FM292000 21007KT P6SM BKN200=

USA.gov is the U.S. government's official web portal to all federal, state and local government web resources and services.